Time;durP1;ratioP1;P1;durP2;ratioP2;P2;SDS_P1;SDS_P2;PMS_P1;PMS_P2;Temp;Humidity;BMP_temperature;BMP_pressure;BME280_temperature;BME280_humidity;BME280_pressure;Samples;Min_cycle;Max_cycle;Signal;HPM_P1;HPM_P2
2023/07/06 00:02:14;;;;;;;;;;;15.80;68.40;;;;;;5028531;28;19970;-71
2023/07/06 00:04:40;;;;;;;;;;;15.70;68.30;;;;;;5027530;28;19953;-71
2023/07/06 00:07:06;;;;;;;;;;;15.70;68.40;;;;;;5028695;28;19913;-71
2023/07/06 00:09:35;;;;;;;;;;;15.70;68.50;;;;;;5028665;28;19910;-71
2023/07/06 00:12:01;;;;;;;;;;;15.60;68.40;;;;;;5027352;28;19949;-71
2023/07/06 00:14:26;;;;;;;;;;;15.60;68.40;;;;;;5028503;28;19910;-71
2023/07/06 00:17:06;;;;;;;;;;;15.60;68.50;;;;;;5028527;28;19917;-72
2023/07/06 00:19:31;;;;;;;;;;;15.60;68.60;;;;;;5027210;28;20007;-71
2023/07/06 00:21:57;;;;;;;;;;;15.60;68.50;;;;;;5028310;28;20335;-71
2023/07/06 00:24:26;;;;;;;;;;;15.60;68.40;;;;;;5028477;28;20282;-71
2023/07/06 00:26:51;;;;;;;;;;;15.50;68.30;;;;;;5028394;28;20392;-71
2023/07/06 00:29:17;;;;;;;;;;;15.40;68.40;;;;;;5028397;28;19920;-71
2023/07/06 00:31:51;;;;;;;;;;;15.40;68.50;;;;;;5028295;28;19921;-71
2023/07/06 00:34:18;;;;;;;;;;;15.30;68.50;;;;;;5028278;28;19913;-71
2023/07/06 00:36:46;;;;;;;;;;;15.30;68.50;;;;;;5028241;28;20294;-71
2023/07/06 00:39:12;;;;;;;;;;;15.40;68.50;;;;;;5028329;28;19913;-71
2023/07/06 00:41:38;;;;;;;;;;;15.40;68.50;;;;;;5028147;28;19954;-71
2023/07/06 00:44:04;;;;;;;;;;;15.30;68.50;;;;;;5028135;28;19940;-71
2023/07/06 00:46:39;;;;;;;;;;;15.30;68.50;;;;;;5028005;28;20376;-71
2023/07/06 00:49:10;;;;;;;;;;;15.30;68.60;;;;;;5028038;28;20358;-72
2023/07/06 00:51:38;;;;;;;;;;;15.30;68.50;;;;;;5028073;28;20349;-71
2023/07/06 00:54:08;;;;;;;;;;;15.40;68.60;;;;;;5028147;28;19936;-71
2023/07/06 00:56:36;;;;;;;;;;;15.30;68.50;;;;;;5027990;28;19913;-71
2023/07/06 00:59:05;;;;;;;;;;;15.40;68.50;;;;;;5027992;28;19923;-72
2023/07/06 01:01:32;;;;;;;;;;;15.40;68.50;;;;;;5027885;28;19925;-71
2023/07/06 01:03:59;;;;;;;;;;;15.30;68.50;;;;;;5027948;28;20325;-71
2023/07/06 01:06:35;;;;;;;;;;;15.30;68.50;;;;;;5027969;28;19909;-71
2023/07/06 01:09:00;;;;;;;;;;;15.30;68.50;;;;;;5027960;28;19909;-71
2023/07/06 01:11:28;;;;;;;;;;;15.30;68.50;;;;;;5027767;28;19917;-71
2023/07/06 01:13:57;;;;;;;;;;;15.20;68.60;;;;;;5026710;28;19934;-71
2023/07/06 01:16:32;;;;;;;;;;;15.20;68.60;;;;;;5026353;28;20332;-71
2023/07/06 01:19:16;;;;;;;;;;;15.20;68.70;;;;;;5027898;28;19916;-71
2023/07/06 01:21:50;;;;;;;;;;;15.20;68.70;;;;;;5026372;28;20396;-72
2023/07/06 01:24:34;;;;;;;;;;;15.20;69.20;;;;;;5027889;28;19912;-71
2023/07/06 01:27:10;;;;;;;;;;;15.20;68.60;;;;;;5027801;28;20438;-71
2023/07/06 01:29:55;;;;;;;;;;;15.20;68.60;;;;;;5028101;28;20283;-71
2023/07/06 01:32:23;;;;;;;;;;;15.30;68.60;;;;;;5027786;28;20027;-71
2023/07/06 01:34:57;;;;;;;;;;;15.30;68.60;;;;;;5027684;28;20063;-71
2023/07/06 01:37:26;;;;;;;;;;;15.30;68.60;;;;;;5027597;28;20285;-71
2023/07/06 01:39:53;;;;;;;;;;;15.30;68.70;;;;;;5027717;28;19912;-71
2023/07/06 01:42:26;;;;;;;;;;;15.30;68.70;;;;;;5026330;28;20370;-71
2023/07/06 01:44:55;;;;;;;;;;;15.30;68.60;;;;;;5027526;28;19910;-71
2023/07/06 01:47:20;;;;;;;;;;;15.20;68.50;;;;;;5027692;28;20000;-71
2023/07/06 01:49:48;;;;;;;;;;;15.20;68.60;;;;;;5027535;28;19960;-71
2023/07/06 01:52:33;;;;;;;;;;;15.20;68.60;;;;;;5027412;28;19909;-71
2023/07/06 01:55:14;;;;;;;;;;;15.10;68.60;;;;;;5027597;28;19971;-71
2023/07/06 01:57:46;;;;;;;;;;;15.10;68.60;;;;;;5027484;28;19959;-72
2023/07/06 02:00:14;;;;;;;;;;;15.10;68.60;;;;;;5029961;28;19959;-72
2023/07/06 02:02:42;;;;;;;;;;;15.00;68.50;;;;;;5031188;28;20351;-71
2023/07/06 02:05:08;;;;;;;;;;;15.00;68.60;;;;;;5031411;28;19909;-71
2023/07/06 02:07:35;;;;;;;;;;;14.90;68.60;;;;;;5030013;28;19909;-71
2023/07/06 02:10:01;;;;;;;;;;;15.00;68.60;;;;;;5031085;28;19913;-71
2023/07/06 02:12:26;;;;;;;;;;;14.90;68.60;;;;;;5031698;28;19920;-72
2023/07/06 02:14:53;;;;;;;;;;;14.90;68.60;;;;;;5031351;28;19943;-72
2023/07/06 02:17:20;;;;;;;;;;;14.80;68.60;;;;;;5030904;28;19960;-72
2023/07/06 02:19:45;;;;;;;;;;;14.80;68.70;;;;;;5030817;28;20374;-72
2023/07/06 02:22:11;;;;;;;;;;;14.80;68.70;;;;;;5030596;28;19992;-72
2023/07/06 02:24:38;;;;;;;;;;;14.90;68.70;;;;;;5030689;28;20285;-72
2023/07/06 02:27:05;;;;;;;;;;;14.80;68.60;;;;;;5031115;28;19991;-72
2023/07/06 02:29:33;;;;;;;;;;;14.90;68.70;;;;;;5030516;28;19937;-72
2023/07/06 02:31:58;;;;;;;;;;;14.80;68.60;;;;;;5030610;28;19910;-72
2023/07/06 02:34:26;;;;;;;;;;;14.90;68.60;;;;;;5030630;28;19913;-72
2023/07/06 02:36:53;;;;;;;;;;;14.90;68.70;;;;;;5030460;28;19917;-72
2023/07/06 02:39:20;;;;;;;;;;;14.90;68.70;;;;;;5030571;28;20385;-72
2023/07/06 02:41:46;;;;;;;;;;;14.90;68.70;;;;;;5030349;28;20012;-72
2023/07/06 02:44:12;;;;;;;;;;;14.90;68.70;;;;;;5030432;28;20330;-72
2023/07/06 02:46:38;;;;;;;;;;;14.90;68.70;;;;;;5030309;28;19913;-72
2023/07/06 02:49:04;;;;;;;;;;;15.00;68.70;;;;;;5030269;28;19913;-72
2023/07/06 02:51:35;;;;;;;;;;;15.00;68.70;;;;;;5030273;28;19920;-72
2023/07/06 02:54:01;;;;;;;;;;;15.10;68.80;;;;;;5030266;28;19928;-72
2023/07/06 02:56:26;;;;;;;;;;;15.10;68.70;;;;;;5030152;28;19920;-72
2023/07/06 02:58:52;;;;;;;;;;;15.10;68.70;;;;;;5030227;28;19913;-72
2023/07/06 03:01:18;;;;;;;;;;;15.20;68.70;;;;;;5029775;28;20408;-72
2023/07/06 03:03:44;;;;;;;;;;;15.10;68.60;;;;;;5030127;28;19920;-72
2023/07/06 03:06:09;;;;;;;;;;;15.20;68.60;;;;;;5030045;28;19917;-72
2023/07/06 03:08:35;;;;;;;;;;;15.20;68.60;;;;;;5029939;28;20012;-72
2023/07/06 03:11:00;;;;;;;;;;;15.10;68.60;;;;;;5029709;28;20394;-72
2023/07/06 03:13:28;;;;;;;;;;;15.10;68.60;;;;;;5029915;28;20381;-72
2023/07/06 03:15:56;;;;;;;;;;;15.10;68.70;;;;;;5029806;28;19928;-72
2023/07/06 03:18:23;;;;;;;;;;;15.10;68.70;;;;;;5029940;28;19924;-72
2023/07/06 03:20:49;;;;;;;;;;;15.20;68.80;;;;;;5029808;28;19909;-72
2023/07/06 03:23:15;;;;;;;;;;;15.20;68.80;;;;;;5029765;28;20431;-71
2023/07/06 03:25:40;;;;;;;;;;;15.20;68.70;;;;;;5029731;28;19913;-71
2023/07/06 03:28:06;;;;;;;;;;;15.20;68.70;;;;;;5029580;28;20293;-71
2023/07/06 03:30:32;;;;;;;;;;;15.20;68.70;;;;;;5029629;28;19996;-71
2023/07/06 03:33:00;;;;;;;;;;;15.20;68.70;;;;;;5029380;28;19963;-71
2023/07/06 03:35:26;;;;;;;;;;;15.20;68.70;;;;;;5029391;28;19936;-71
2023/07/06 03:37:58;;;;;;;;;;;15.20;68.70;;;;;;5029458;28;20380;-71
2023/07/06 03:40:27;;;;;;;;;;;15.20;68.70;;;;;;5029400;28;20000;-71
2023/07/06 03:42:56;;;;;;;;;;;15.20;68.70;;;;;;5029143;28;19955;-71
2023/07/06 03:45:22;;;;;;;;;;;15.20;68.80;;;;;;5029308;28;19921;-71
2023/07/06 03:47:48;;;;;;;;;;;15.10;68.70;;;;;;5029219;28;19913;-71
2023/07/06 03:50:15;;;;;;;;;;;15.10;68.70;;;;;;5029043;28;19959;-71
2023/07/06 03:52:41;;;;;;;;;;;15.10;68.80;;;;;;5028974;28;19909;-71
2023/07/06 03:55:11;;;;;;;;;;;15.10;68.80;;;;;;5029058;28;19992;-71
2023/07/06 03:57:36;;;;;;;;;;;15.20;68.90;;;;;;5028840;28;19919;-71
2023/07/06 04:00:08;;;;;;;;;;;15.20;68.90;;;;;;5028802;28;19917;-71
2023/07/06 04:02:34;;;;;;;;;;;15.10;68.70;;;;;;5028635;28;19919;-71
2023/07/06 04:04:59;;;;;;;;;;;15.20;68.80;;;;;;5028313;28;20007;-71
2023/07/06 04:07:25;;;;;;;;;;;15.20;68.80;;;;;;5027197;28;19918;-71
2023/07/06 04:09:53;;;;;;;;;;;15.20;68.90;;;;;;5027798;28;20311;-71
2023/07/06 04:12:19;;;;;;;;;;;15.20;68.90;;;;;;5028240;28;19915;-71
2023/07/06 04:14:44;;;;;;;;;;;15.20;68.90;;;;;;5028316;28;19920;-71
2023/07/06 04:17:14;;;;;;;;;;;15.10;68.80;;;;;;5028209;28;19917;-71
2023/07/06 04:19:40;;;;;;;;;;;15.10;68.80;;;;;;5028181;28;20392;-71
2023/07/06 04:22:06;;;;;;;;;;;15.10;68.80;;;;;;5027748;28;19953;-71
2023/07/06 04:24:31;;;;;;;;;;;15.00;68.80;;;;;;5028227;28;19921;-71
2023/07/06 04:26:59;;;;;;;;;;;15.10;68.90;;;;;;5028030;28;20296;-71
2023/07/06 04:29:26;;;;;;;;;;;15.10;68.90;;;;;;5028057;28;20287;-71
2023/07/06 04:31:55;;;;;;;;;;;15.00;68.90;;;;;;5028088;28;19917;-71
2023/07/06 04:34:21;;;;;;;;;;;15.00;68.90;;;;;;5028825;28;20396;-71
2023/07/06 04:36:47;;;;;;;;;;;15.00;68.90;;;;;;5028199;28;19936;-71
2023/07/06 04:39:12;;;;;;;;;;;15.00;68.90;;;;;;5028089;28;20417;-71
2023/07/06 04:41:38;;;;;;;;;;;15.00;68.90;;;;;;5028235;28;19910;-71
2023/07/06 04:44:04;;;;;;;;;;;15.00;68.90;;;;;;5028055;28;19974;-71
2023/07/06 04:46:29;;;;;;;;;;;15.10;69.00;;;;;;5028182;28;19917;-71
2023/07/06 04:48:55;;;;;;;;;;;15.10;69.00;;;;;;5028285;28;20266;-71
2023/07/06 04:51:20;;;;;;;;;;;15.10;68.90;;;;;;5028044;28;19921;-71
2023/07/06 04:53:48;;;;;;;;;;;15.10;69.00;;;;;;5028203;28;19914;-71
2023/07/06 04:56:13;;;;;;;;;;;15.10;68.90;;;;;;5028019;28;19921;-71
2023/07/06 04:58:41;;;;;;;;;;;15.20;69.00;;;;;;5027894;28;20296;-71
2023/07/06 05:01:07;;;;;;;;;;;15.10;68.90;;;;;;5027857;28;19949;-71
2023/07/06 05:03:34;;;;;;;;;;;15.20;69.00;;;;;;5027720;28;20370;-71
2023/07/06 05:06:00;;;;;;;;;;;15.20;68.90;;;;;;5027932;28;19913;-71
2023/07/06 05:08:27;;;;;;;;;;;15.20;68.90;;;;;;5027876;28;19974;-71
2023/07/06 05:10:53;;;;;;;;;;;15.20;68.90;;;;;;5026494;28;19963;-71
2023/07/06 05:13:19;;;;;;;;;;;15.20;68.90;;;;;;5027452;28;19917;-71
2023/07/06 05:15:45;;;;;;;;;;;15.30;68.90;;;;;;5027663;28;19948;-71
2023/07/06 05:18:10;;;;;;;;;;;15.30;68.90;;;;;;5027437;28;19952;-71
2023/07/06 05:20:36;;;;;;;;;;;15.30;68.90;;;;;;5027600;28;20361;-71
2023/07/06 05:23:03;;;;;;;;;;;15.20;68.90;;;;;;5027392;28;19987;-71
2023/07/06 05:25:29;;;;;;;;;;;15.30;68.90;;;;;;5027611;28;19909;-71
2023/07/06 05:27:54;;;;;;;;;;;15.30;68.90;;;;;;5027566;28;19917;-71
2023/07/06 05:30:20;;;;;;;;;;;15.30;68.90;;;;;;5027282;28;20432;-71
2023/07/06 05:32:45;;;;;;;;;;;15.30;69.00;;;;;;5026139;28;20004;-71
2023/07/06 05:35:13;;;;;;;;;;;15.40;69.00;;;;;;5030221;28;19913;-71
2023/07/06 05:37:39;;;;;;;;;;;15.40;69.50;;;;;;5031283;28;19959;-71
2023/07/06 05:40:06;;;;;;;;;;;15.50;69.00;;;;;;5031486;28;19921;-71
2023/07/06 05:42:32;;;;;;;;;;;15.60;69.00;;;;;;5031179;28;19921;-71
2023/07/06 05:44:57;;;;;;;;;;;15.60;68.90;;;;;;5031541;28;19913;-70
2023/07/06 05:47:23;;;;;;;;;;;15.60;68.90;;;;;;5031096;28;19955;-71
2023/07/06 05:49:48;;;;;;;;;;;15.70;68.90;;;;;;5031274;28;19913;-71
2023/07/06 05:52:14;;;;;;;;;;;15.70;68.90;;;;;;5031124;28;19920;-71
2023/07/06 05:54:39;;;;;;;;;;;15.80;68.90;;;;;;5030956;28;19919;-71
2023/07/06 05:57:06;;;;;;;;;;;15.80;68.90;;;;;;5031031;28;19971;-71
2023/07/06 05:59:32;;;;;;;;;;;15.90;69.00;;;;;;5030938;28;20016;-71
2023/07/06 06:01:58;;;;;;;;;;;16.00;69.00;;;;;;5030718;28;19925;-71
2023/07/06 06:04:26;;;;;;;;;;;16.00;68.90;;;;;;5031023;28;19948;-71
2023/07/06 06:06:54;;;;;;;;;;;16.00;68.90;;;;;;5030972;28;19909;-71
2023/07/06 06:09:20;;;;;;;;;;;16.10;68.90;;;;;;5031095;28;19909;-71
2023/07/06 06:11:46;;;;;;;;;;;16.10;68.90;;;;;;5030872;28;20277;-71
2023/07/06 06:14:12;;;;;;;;;;;16.20;68.90;;;;;;5030927;28;20388;-71
2023/07/06 06:16:39;;;;;;;;;;;16.20;68.80;;;;;;5030725;28;19925;-71
2023/07/06 06:19:04;;;;;;;;;;;16.20;68.80;;;;;;5030694;28;19920;-71
2023/07/06 06:21:30;;;;;;;;;;;16.20;68.90;;;;;;5030655;28;19917;-71
2023/07/06 06:23:57;;;;;;;;;;;16.20;68.90;;;;;;5029506;28;20441;-71
2023/07/06 06:26:23;;;;;;;;;;;16.30;69.00;;;;;;5030624;28;19913;-71
2023/07/06 06:28:49;;;;;;;;;;;16.30;69.00;;;;;;5028970;28;19909;-71
2023/07/06 06:31:14;;;;;;;;;;;16.50;69.10;;;;;;5030461;28;19917;-71
2023/07/06 06:33:40;;;;;;;;;;;16.70;69.20;;;;;;5030314;28;19914;-71
2023/07/06 06:36:07;;;;;;;;;;;17.10;69.30;;;;;;5030118;28;20294;-71
2023/07/06 06:38:34;;;;;;;;;;;17.50;69.00;;;;;;5030225;28;20438;-71
2023/07/06 06:41:10;;;;;;;;;;;17.90;68.60;;;;;;5030194;28;19913;-71
2023/07/06 06:43:39;;;;;;;;;;;18.20;68.20;;;;;;5030214;28;19920;-71
2023/07/06 06:46:06;;;;;;;;;;;18.20;68.00;;;;;;5029763;28;20638;-71
2023/07/06 06:48:34;;;;;;;;;;;18.10;68.00;;;;;;5030379;28;20353;-71
2023/07/06 06:51:01;;;;;;;;;;;18.00;68.20;;;;;;5029637;28;19916;-74
2023/07/06 06:53:26;;;;;;;;;;;17.90;68.30;;;;;;5029669;28;19909;-74
2023/07/06 06:55:52;;;;;;;;;;;17.90;68.40;;;;;;5030006;28;19924;-74
2023/07/06 06:58:20;;;;;;;;;;;17.90;68.60;;;;;;5029414;28;20012;-74
2023/07/06 07:00:51;;;;;;;;;;;17.90;68.80;;;;;;5028259;28;20258;-73
2023/07/06 07:03:16;;;;;;;;;;;18.00;68.80;;;;;;5029550;28;20345;-73
2023/07/06 07:05:42;;;;;;;;;;;18.00;68.60;;;;;;5029427;28;19920;-74
2023/07/06 07:08:07;;;;;;;;;;;17.90;68.60;;;;;;5028362;28;19929;-74
2023/07/06 07:10:33;;;;;;;;;;;17.90;68.60;;;;;;5028358;28;19916;-74
2023/07/06 07:12:59;;;;;;;;;;;17.80;68.60;;;;;;5029928;28;20241;-74
2023/07/06 07:15:24;;;;;;;;;;;17.70;68.60;;;;;;5029279;28;19914;-73
2023/07/06 07:17:51;;;;;;;;;;;17.70;68.80;;;;;;5029267;28;19971;-74
2023/07/06 07:20:18;;;;;;;;;;;17.70;68.80;;;;;;5029325;28;19921;-73
2023/07/06 07:22:44;;;;;;;;;;;17.70;68.90;;;;;;5027880;28;19909;-74
2023/07/06 07:25:10;;;;;;;;;;;17.70;68.90;;;;;;5029093;28;20004;-74
2023/07/06 07:27:36;;;;;;;;;;;17.80;68.90;;;;;;5029006;28;20015;-74
2023/07/06 07:30:05;;;;;;;;;;;17.90;68.90;;;;;;5029290;28;19973;-74
2023/07/06 07:32:31;;;;;;;;;;;18.00;69.50;;;;;;5028927;28;19913;-74
2023/07/06 07:34:58;;;;;;;;;;;18.20;69.10;;;;;;5028868;28;19916;-74
2023/07/06 07:37:25;;;;;;;;;;;18.50;69.10;;;;;;5028958;28;19913;-72
2023/07/06 07:39:50;;;;;;;;;;;18.90;68.90;;;;;;5028594;28;19921;-74
2023/07/06 07:42:16;;;;;;;;;;;19.20;68.70;;;;;;5028349;28;20349;-74
2023/07/06 07:44:44;;;;;;;;;;;19.30;68.40;;;;;;5027507;28;19940;-74
2023/07/06 07:47:10;;;;;;;;;;;19.40;68.50;;;;;;5028841;28;19920;-74
2023/07/06 07:49:37;;;;;;;;;;;19.60;68.50;;;;;;5028825;28;20007;-74
2023/07/06 07:52:03;;;;;;;;;;;19.80;68.60;;;;;;5028652;28;19913;-73
2023/07/06 07:54:29;;;;;;;;;;;20.40;68.90;;;;;;5028354;28;20108;-74
2023/07/06 07:56:56;;;;;;;;;;;21.20;68.80;;;;;;5027467;28;20285;-74
2023/07/06 07:59:23;;;;;;;;;;;22.00;68.30;;;;;;5027983;28;19997;-74
2023/07/06 08:01:50;;;;;;;;;;;22.40;67.60;;;;;;5028018;28;19961;-72
2023/07/06 08:04:16;;;;;;;;;;;22.30;67.20;;;;;;5028076;28;19916;-74
2023/07/06 08:06:42;;;;;;;;;;;22.10;67.30;;;;;;5027882;28;19948;-73
2023/07/06 08:09:08;;;;;;;;;;;21.80;67.80;;;;;;5028068;28;19984;-73
2023/07/06 08:11:36;;;;;;;;;;;21.80;68.20;;;;;;5028114;28;19948;-74
2023/07/06 08:14:04;;;;;;;;;;;22.10;68.50;;;;;;5028188;28;19914;-74
2023/07/06 08:16:32;;;;;;;;;;;22.40;68.20;;;;;;5027947;28;19931;-74
2023/07/06 08:18:58;;;;;;;;;;;22.50;67.90;;;;;;5028265;28;19920;-75
2023/07/06 08:21:24;;;;;;;;;;;22.60;67.70;;;;;;5026606;28;19909;-74
2023/07/06 08:23:50;;;;;;;;;;;22.60;67.80;;;;;;5027795;28;19913;-74
2023/07/06 08:26:16;;;;;;;;;;;23.00;68.30;;;;;;5028029;28;19945;-75
2023/07/06 08:28:41;;;;;;;;;;;23.90;68.50;;;;;;5027855;28;20298;-74
2023/07/06 08:31:12;;;;;;;;;;;24.80;68.20;;;;;;5027966;28;19920;-75
2023/07/06 08:33:37;;;;;;;;;;;25.40;67.80;;;;;;5027944;28;20015;-74
2023/07/06 08:36:04;;;;;;;;;;;25.60;67.10;;;;;;5026103;28;19925;-75
2023/07/06 08:38:31;;;;;;;;;;;25.10;66.90;;;;;;5037829;28;19916;-74
2023/07/06 08:40:59;;;;;;;;;;;24.40;66.50;;;;;;5039096;28;19909;-75
2023/07/06 08:43:29;;;;;;;;;;;23.60;66.90;;;;;;5035112;28;19909;-74
2023/07/06 08:45:58;;;;;;;;;;;23.10;67.40;;;;;;5038816;28;19913;-74
2023/07/06 08:48:25;;;;;;;;;;;22.60;67.90;;;;;;5032601;28;19909;-74
2023/07/06 08:50:53;;;;;;;;;;;22.40;68.50;;;;;;5035599;28;20005;-75
2023/07/06 08:53:20;;;;;;;;;;;22.60;68.90;;;;;;5035183;28;19931;-74
2023/07/06 08:55:49;;;;;;;;;;;23.00;69.40;;;;;;5040548;28;19913;-74
2023/07/06 08:58:25;;;;;;;;;;;23.80;69.10;;;;;;5038716;28;19913;-75
2023/07/06 09:00:55;;;;;;;;;;;24.10;68.30;;;;;;5036686;28;19975;-75
2023/07/06 09:03:23;;;;;;;;;;;24.00;68.00;;;;;;5036721;28;20326;-74
2023/07/06 09:05:49;;;;;;;;;;;23.90;68.20;;;;;;5037716;28;20285;-75
2023/07/06 09:08:17;;;;;;;;;;;23.90;68.10;;;;;;5041684;28;19922;-75
2023/07/06 09:10:42;;;;;;;;;;;23.80;68.10;;;;;;5045490;28;19917;-75
2023/07/06 09:13:14;;;;;;;;;;;23.70;68.00;;;;;;5043698;28;19961;-75
2023/07/06 09:15:40;;;;;;;;;;;23.40;67.90;;;;;;5047009;28;20353;-75
2023/07/06 09:18:12;;;;;;;;;;;23.00;67.90;;;;;;5048757;28;19913;-75
2023/07/06 09:20:38;;;;;;;;;;;22.60;68.10;;;;;;5045941;28;19909;-75
2023/07/06 09:23:06;;;;;;;;;;;22.20;68.50;;;;;;5048614;28;19935;-75
2023/07/06 09:25:36;;;;;;;;;;;21.90;68.70;;;;;;5048508;28;19943;-75
2023/07/06 09:28:05;;;;;;;;;;;21.80;68.90;;;;;;5042617;28;20023;-78
2023/07/06 09:30:33;;;;;;;;;;;21.50;68.80;;;;;;5044937;28;19912;-75
2023/07/06 09:33:13;;;;;;;;;;;21.20;69.10;;;;;;5042529;28;20014;-75
2023/07/06 09:35:39;;;;;;;;;;;21.20;69.50;;;;;;5044215;28;19909;-75
2023/07/06 09:38:06;;;;;;;;;;;21.30;69.40;;;;;;5046248;28;19913;-76
2023/07/06 09:40:32;;;;;;;;;;;21.30;69.30;;;;;;5044956;28;19913;-76
2023/07/06 09:42:57;;;;;;;;;;;21.30;69.40;;;;;;5043659;28;20336;-75
2023/07/06 09:45:25;;;;;;;;;;;21.30;69.60;;;;;;5046087;28;19968;-75
2023/07/06 09:48:17;;;;;;;;;;;21.30;69.70;;;;;;5043627;28;20336;-74
2023/07/06 09:50:46;;;;;;;;;;;21.50;69.50;;;;;;5023552;28;20007;-74
2023/07/06 09:53:19;;;;;;;;;;;21.60;69.70;;;;;;5042825;28;19988;-75
2023/07/06 09:55:44;;;;;;;;;;;21.60;69.30;;;;;;5037287;28;20234;-76
2023/07/06 09:58:14;;;;;;;;;;;21.70;69.30;;;;;;5035155;28;19923;-76
2023/07/06 10:00:44;;;;;;;;;;;21.70;69.20;;;;;;5034373;28;19964;-75
2023/07/06 10:03:14;;;;;;;;;;;21.60;68.90;;;;;;5033187;28;19913;-74
2023/07/06 10:06:00;;;;;;;;;;;21.30;69.10;;;;;;5034817;28;19909;-74
2023/07/06 10:08:32;;;;;;;;;;;21.20;69.30;;;;;;5034736;28;20035;-74
2023/07/06 10:10:58;;;;;;;;;;;21.10;69.30;;;;;;5034700;28;19923;-76
2023/07/06 10:13:31;;;;;;;;;;;21.10;69.40;;;;;;5033308;28;19913;-76
2023/07/06 10:16:12;;;;;;;;;;;21.10;69.50;;;;;;5034552;28;19914;-75
2023/07/06 10:18:49;;;;;;;;;;;21.30;69.60;;;;;;5034393;28;19968;-75
2023/07/06 10:21:17;;;;;;;;;;;21.50;69.70;;;;;;5030318;28;20011;-75
2023/07/06 10:23:46;;;;;;;;;;;21.80;69.60;;;;;;5030011;28;20047;-76
2023/07/06 10:26:18;;;;;;;;;;;22.30;70.20;;;;;;5030976;28;19909;-76
2023/07/06 10:28:49;;;;;;;;;;;22.70;69.80;;;;;;5031182;28;19992;-76
2023/07/06 10:31:17;;;;;;;;;;;22.80;69.00;;;;;;5030464;28;19909;-76
2023/07/06 10:33:48;;;;;;;;;;;22.40;68.40;;;;;;5030586;28;19917;-75
2023/07/06 10:36:15;;;;;;;;;;;21.90;68.50;;;;;;5031111;28;20366;-75
2023/07/06 10:38:41;;;;;;;;;;;21.50;69.00;;;;;;5031147;28;19950;-77
2023/07/06 10:41:10;;;;;;;;;;;21.40;69.40;;;;;;5031437;28;19940;-77
2023/07/06 10:43:40;;;;;;;;;;;21.50;69.70;;;;;;5031270;28;19917;-77
2023/07/06 10:46:25;;;;;;;;;;;21.70;69.60;;;;;;5031028;28;20403;-74
2023/07/06 10:49:10;;;;;;;;;;;21.60;69.20;;;;;;5030877;28;19913;-75
2023/07/06 10:51:45;;;;;;;;;;;21.50;69.00;;;;;;5023330;28;20341;-75
2023/07/06 10:54:18;;;;;;;;;;;21.30;69.10;;;;;;5034677;28;19913;-75
2023/07/06 10:57:01;;;;;;;;;;;21.20;69.20;;;;;;5030954;28;19913;-77
2023/07/06 10:59:37;;;;;;;;;;;21.10;69.20;;;;;;5030782;28;19916;-75
2023/07/06 11:02:13;;;;;;;;;;;21.00;68.90;;;;;;5030309;28;19929;-75
2023/07/06 11:04:41;;;;;;;;;;;20.70;69.00;;;;;;5035802;28;19939;-75
2023/07/06 11:07:09;;;;;;;;;;;20.50;69.10;;;;;;5041501;28;19955;-76
2023/07/06 11:10:04;;;;;;;;;;;20.40;69.40;;;;;;5041782;28;20349;-76
2023/07/06 11:12:29;;;;;;;;;;;20.40;69.50;;;;;;5033776;28;19909;-77
2023/07/06 11:15:10;;;;;;;;;;;20.40;69.40;;;;;;5044407;28;19996;-75
2023/07/06 11:17:37;;;;;;;;;;;20.30;69.40;;;;;;5050192;28;19913;-76
2023/07/06 11:20:17;;;;;;;;;;;20.30;69.60;;;;;;5050137;28;20007;-76
2023/07/06 11:22:50;;;;;;;;;;;20.40;69.50;;;;;;5050515;28;19913;-76
2023/07/06 11:25:16;;;;;;;;;;;20.30;69.50;;;;;;5050145;28;20354;-76
2023/07/06 11:27:45;;;;;;;;;;;20.40;69.30;;;;;;5049088;28;20001;-76
2023/07/06 11:30:12;;;;;;;;;;;20.20;68.80;;;;;;5050051;28;20399;-75
2023/07/06 11:32:43;;;;;;;;;;;19.80;68.60;;;;;;5047201;28;19963;-75
2023/07/06 11:35:14;;;;;;;;;;;19.40;68.50;;;;;;5049766;28;19920;-75
2023/07/06 11:37:46;;;;;;;;;;;18.90;68.50;;;;;;5045066;28;20016;-76
2023/07/06 11:40:22;;;;;;;;;;;18.40;68.80;;;;;;5030464;28;19924;-75
2023/07/06 11:42:57;;;;;;;;;;;18.00;69.10;;;;;;5030239;28;20382;-74
2023/07/06 11:45:45;;;;;;;;;;;17.90;69.70;;;;;;5031021;28;20301;-77
2023/07/06 11:48:26;;;;;;;;;;;17.90;69.90;;;;;;5032976;28;19947;-77
2023/07/06 11:50:53;;;;;;;;;;;18.00;69.70;;;;;;5030016;28;19913;-77
2023/07/06 11:53:31;;;;;;;;;;;18.00;69.50;;;;;;5030123;28;19917;-77
2023/07/06 11:56:08;;;;;;;;;;;18.00;69.50;;;;;;5030235;28;20330;-76
2023/07/06 11:58:53;;;;;;;;;;;18.00;69.30;;;;;;5030026;28;20353;-76
2023/07/06 12:01:32;;;;;;;;;;;17.90;69.00;;;;;;5030269;28;19921;-76
2023/07/06 12:03:59;;;;;;;;;;;17.60;68.90;;;;;;5030289;28;20277;-75
2023/07/06 12:06:24;;;;;;;;;;;17.40;69.10;;;;;;5029758;28;20330;-79
2023/07/06 12:08:50;;;;;;;;;;;17.30;69.20;;;;;;5028515;28;19921;-78
2023/07/06 12:11:22;;;;;;;;;;;17.20;69.30;;;;;;5029744;28;19913;-75
2023/07/06 12:13:52;;;;;;;;;;;17.10;69.50;;;;;;5029250;28;19913;-68
2023/07/06 12:16:24;;;;;;;;;;;17.00;69.50;;;;;;5028754;28;19913;-74
2023/07/06 12:18:55;;;;;;;;;;;17.10;69.60;;;;;;5030428;28;19959;-75
2023/07/06 12:21:23;;;;;;;;;;;17.10;69.70;;;;;;5028299;28;20380;-76
2023/07/06 12:23:48;;;;;;;;;;;17.30;69.70;;;;;;5029520;28;19916;-75
2023/07/06 12:26:14;;;;;;;;;;;17.40;69.60;;;;;;5029692;28;19917;-74
2023/07/06 12:28:43;;;;;;;;;;;17.50;69.40;;;;;;5039351;28;19909;-75
2023/07/06 12:31:09;;;;;;;;;;;17.60;69.40;;;;;;5031997;28;19913;-74
2023/07/06 12:33:35;;;;;;;;;;;17.70;69.20;;;;;;5040630;28;20050;-76
2023/07/06 12:36:02;;;;;;;;;;;17.80;69.40;;;;;;5043819;28;20031;-75
2023/07/06 12:38:28;;;;;;;;;;;17.90;69.40;;;;;;5030880;28;19916;-75
2023/07/06 12:41:20;;;;;;;;;;;18.10;69.40;;;;;;5029140;28;19913;-75
2023/07/06 12:43:46;;;;;;;;;;;18.20;69.20;;;;;;5021652;28;20587;-74
2023/07/06 12:46:12;;;;;;;;;;;18.30;69.10;;;;;;5028956;28;19940;-75
2023/07/06 12:48:47;;;;;;;;;;;18.40;69.10;;;;;;5028879;28;19917;-74
2023/07/06 12:51:19;;;;;;;;;;;18.40;69.20;;;;;;5029038;28;19909;-74
2023/07/06 12:53:47;;;;;;;;;;;18.50;69.10;;;;;;5034023;28;19914;-76
2023/07/06 12:56:17;;;;;;;;;;;18.60;69.20;;;;;;5031370;28;19917;-75
2023/07/06 12:59:02;;;;;;;;;;;18.60;69.10;;;;;;5028982;28;19941;-76
2023/07/06 13:01:30;;;;;;;;;;;18.40;68.80;;;;;;5028868;28;19957;-75
2023/07/06 13:04:00;;;;;;;;;;;18.10;68.80;;;;;;5028779;28;19952;-75
2023/07/06 13:06:27;;;;;;;;;;;18.00;68.90;;;;;;5029284;28;20000;-76
2023/07/06 13:08:56;;;;;;;;;;;17.90;69.00;;;;;;5029298;28;20348;-75
2023/07/06 13:11:22;;;;;;;;;;;17.80;69.20;;;;;;5027937;28;19909;-77
2023/07/06 13:13:48;;;;;;;;;;;17.70;69.30;;;;;;5028983;28;19935;-75
2023/07/06 13:16:16;;;;;;;;;;;17.70;69.50;;;;;;5029047;28;19929;-76
2023/07/06 13:18:42;;;;;;;;;;;17.70;69.60;;;;;;5028957;28;19929;-75
2023/07/06 13:21:24;;;;;;;;;;;17.70;69.60;;;;;;5028651;28;20381;-75
2023/07/06 13:23:51;;;;;;;;;;;17.80;69.80;;;;;;5028826;28;19913;-75
2023/07/06 13:26:16;;;;;;;;;;;18.00;69.80;;;;;;5028564;28;19959;-74
2023/07/06 13:28:43;;;;;;;;;;;18.20;69.80;;;;;;5028357;28;19913;-75
2023/07/06 13:31:12;;;;;;;;;;;18.40;69.80;;;;;;5030770;28;19945;-76
2023/07/06 13:33:40;;;;;;;;;;;18.70;70.00;;;;;;5041523;28;19909;-75
2023/07/06 13:36:10;;;;;;;;;;;19.10;69.80;;;;;;5042207;28;20039;-74
2023/07/06 13:38:35;;;;;;;;;;;19.30;69.60;;;;;;5044293;28;20049;-75
2023/07/06 13:41:02;;;;;;;;;;;19.50;69.50;;;;;;5040306;28;19952;-76
2023/07/06 13:43:27;;;;;;;;;;;19.70;69.50;;;;;;5039948;28;20393;-75
2023/07/06 13:45:54;;;;;;;;;;;19.80;69.50;;;;;;5037389;28;19913;-76
2023/07/06 13:48:20;;;;;;;;;;;20.00;69.50;;;;;;5034052;28;19908;-76
2023/07/06 13:50:45;;;;;;;;;;;20.10;69.60;;;;;;5040110;28;19959;-75
2023/07/06 13:53:12;;;;;;;;;;;20.30;69.50;;;;;;5033247;28;19948;-75
2023/07/06 13:55:52;;;;;;;;;;;20.40;69.50;;;;;;5039954;28;19909;-75
2023/07/06 13:58:19;;;;;;;;;;;20.40;69.60;;;;;;5037685;28;19917;-75
2023/07/06 14:00:47;;;;;;;;;;;20.60;69.60;;;;;;5043146;28;20404;-76
2023/07/06 14:03:15;;;;;;;;;;;20.60;69.50;;;;;;5038814;28;20313;-75
2023/07/06 14:05:42;;;;;;;;;;;20.60;69.70;;;;;;5032036;28;20028;-76
2023/07/06 14:08:09;;;;;;;;;;;20.60;69.50;;;;;;5032043;28;19909;-77
2023/07/06 14:10:34;;;;;;;;;;;20.60;69.50;;;;;;5032422;28;19924;-75
2023/07/06 14:13:00;;;;;;;;;;;20.60;69.50;;;;;;5031529;28;19913;-76
2023/07/06 14:15:26;;;;;;;;;;;20.50;69.40;;;;;;5031842;28;19918;-76
2023/07/06 14:17:53;;;;;;;;;;;20.30;69.60;;;;;;5031599;28;19913;-76
2023/07/06 14:20:22;;;;;;;;;;;20.20;69.70;;;;;;5030100;28;20365;-76
2023/07/06 14:22:48;;;;;;;;;;;20.10;69.70;;;;;;5031627;28;19914;-76
2023/07/06 14:25:18;;;;;;;;;;;19.90;69.60;;;;;;5031317;28;19917;-76